createdAt,value
2019-01-16T00:00:58.176Z,0.80
2019-01-16T00:02:59.454Z,0.70
2019-01-16T00:04:49.789Z,0.70
2019-01-16T00:06:57.018Z,0.60
2019-01-16T00:08:51.370Z,0.60
2019-01-16T00:10:41.276Z,0.60
2019-01-16T00:12:35.161Z,0.60
2019-01-16T00:14:45.229Z,0.50
2019-01-16T00:16:34.861Z,0.60
2019-01-16T00:18:39.013Z,0.60
2019-01-16T00:20:43.680Z,0.60
2019-01-16T00:22:37.403Z,0.50
2019-01-16T00:24:32.556Z,0.50
2019-01-16T00:26:25.081Z,0.50
2019-01-16T00:28:32.125Z,0.50
2019-01-16T00:30:21.717Z,0.50
2019-01-16T00:32:19.766Z,0.40
2019-01-16T00:34:14.185Z,0.40
2019-01-16T00:36:05.246Z,0.40
2019-01-16T00:37:57.409Z,0.40
2019-01-16T00:40:04.668Z,0.40
2019-01-16T00:41:59.829Z,0.30
2019-01-16T00:44:13.433Z,0.30
2019-01-16T00:46:14.789Z,0.30
2019-01-16T00:48:09.887Z,0.30
2019-01-16T00:50:08.102Z,0.30
2019-01-16T00:52:12.235Z,0.30
2019-01-16T00:54:19.213Z,0.30
2019-01-16T00:56:04.713Z,0.20
2019-01-16T00:58:05.700Z,0.20
2019-01-16T00:59:59.557Z,0.20
2019-01-16T01:01:57.668Z,0.20
2019-01-16T01:04:01.842Z,0.20
2019-01-16T01:05:55.616Z,0.20
2019-01-16T01:08:00.106Z,0.20
2019-01-16T01:09:53.745Z,0.20
2019-01-16T01:11:46.805Z,0.10
2019-01-16T01:13:33.121Z,0.10
2019-01-16T01:15:32.943Z,0.10
2019-01-16T01:17:23.221Z,0.10
2019-01-16T01:19:18.404Z,0.10
2019-01-16T01:21:23.953Z,0.10
2019-01-16T01:23:18.778Z,0.10
2019-01-16T01:25:09.713Z,0.10
2019-01-16T01:27:09.861Z,0.10
2019-01-16T01:29:03.230Z,0.10
2019-01-16T01:31:04.958Z,0.00
2019-01-16T01:33:00.241Z,0.00
2019-01-16T01:34:44.278Z,0.00
2019-01-16T01:36:38.088Z,0.00
2019-01-16T01:38:42.232Z,0.00
2019-01-16T01:40:40.159Z,0.00
2019-01-16T01:42:33.907Z,0.00
2019-01-16T01:44:31.926Z,0.00
2019-01-16T01:46:26.008Z,0.00
2019-01-16T01:48:27.134Z,0.00
2019-01-16T01:50:28.681Z,0.00
2019-01-16T01:52:22.762Z,0.00
2019-01-16T01:54:26.982Z,0.00
2019-01-16T01:56:28.872Z,0.00
2019-01-16T01:58:33.191Z,0.00
2019-01-16T02:00:30.296Z,0.00
2019-01-16T02:02:16.120Z,0.00
2019-01-16T02:04:13.990Z,0.00
2019-01-16T02:06:08.477Z,-0.10
2019-01-16T02:07:57.408Z,-0.10
2019-01-16T02:09:45.603Z,-0.10
2019-01-16T02:11:36.076Z,-0.10
2019-01-16T02:13:25.396Z,-0.20
2019-01-16T02:15:19.190Z,-0.20
2019-01-16T02:17:13.140Z,-0.20
2019-01-16T02:19:04.669Z,-0.20
2019-01-16T02:21:05.722Z,-0.20
2019-01-16T02:23:07.953Z,-0.20
2019-01-16T02:25:03.069Z,-0.20
2019-01-16T02:26:47.345Z,-0.20
2019-01-16T02:28:42.568Z,-0.20
2019-01-16T02:30:40.555Z,-0.20
2019-01-16T02:32:44.974Z,-0.20
2019-01-16T02:34:38.649Z,-0.20
2019-01-16T02:36:43.080Z,-0.20
2019-01-16T02:38:30.215Z,-0.20
2019-01-16T02:40:15.946Z,-0.20
2019-01-16T02:42:09.727Z,-0.20
2019-01-16T02:44:05.056Z,-0.20
2019-01-16T02:46:00.300Z,-0.20
2019-01-16T02:47:46.525Z,-0.20
2019-01-16T02:49:41.622Z,-0.20
2019-01-16T02:51:54.956Z,-0.30
2019-01-16T02:53:48.343Z,-0.20
2019-01-16T02:56:01.792Z,-0.30
2019-01-16T02:58:15.327Z,-0.20
2019-01-16T03:00:00.194Z,-0.20
2019-01-16T03:01:54.339Z,-0.20
2019-01-16T03:03:52.207Z,-0.30
2019-01-16T03:05:49.998Z,-0.30
2019-01-16T03:07:37.640Z,-0.30
2019-01-16T03:09:31.457Z,-0.20
2019-01-16T03:11:26.654Z,-0.30
2019-01-16T03:13:24.482Z,-0.30
2019-01-16T03:15:18.509Z,-0.30
2019-01-16T03:17:13.830Z,-0.30
2019-01-16T03:19:07.323Z,-0.40
2019-01-16T03:21:17.914Z,-0.40
2019-01-16T03:23:11.372Z,-0.40
2019-01-16T03:25:09.498Z,-0.40
2019-01-16T03:27:04.604Z,-0.40
2019-01-16T03:29:04.663Z,-0.40
2019-01-16T03:30:53.822Z,-0.40
2019-01-16T03:32:47.941Z,-0.40
2019-01-16T03:34:43.185Z,-0.40
2019-01-16T03:36:44.111Z,-0.40
2019-01-16T03:38:34.075Z,-0.40
2019-01-16T03:40:35.410Z,-0.40
2019-01-16T03:42:25.183Z,-0.30
2019-01-16T03:44:38.604Z,-0.40
2019-01-16T03:46:28.495Z,-0.40
2019-01-16T03:48:22.283Z,-0.40
2019-01-16T03:50:16.237Z,-0.40
2019-01-16T03:52:26.287Z,-0.40
2019-01-16T03:54:13.909Z,-0.50
2019-01-16T03:56:20.157Z,-0.50
2019-01-16T03:58:14.181Z,-0.50
2019-01-16T04:00:06.922Z,-0.50
2019-01-16T04:02:01.109Z,-0.50
2019-01-16T04:04:02.925Z,-0.60
2019-01-16T04:05:48.235Z,-0.60
2019-01-16T04:07:55.182Z,-0.60
2019-01-16T04:09:50.361Z,-0.60
2019-01-16T04:11:48.645Z,-0.60
2019-01-16T04:13:49.723Z,-0.60
2019-01-16T04:15:48.970Z,-0.60
2019-01-16T04:17:44.372Z,-0.60
2019-01-16T04:19:39.477Z,-0.60
2019-01-16T04:21:33.626Z,-0.60
2019-01-16T04:23:19.867Z,-0.60
2019-01-16T04:25:17.902Z,-0.60
2019-01-16T04:27:23.063Z,-0.60
2019-01-16T04:29:25.923Z,-0.60
2019-01-16T04:31:16.713Z,-0.60
2019-01-16T04:33:16.744Z,-0.60
2019-01-16T04:35:14.843Z,-0.60
2019-01-16T04:37:19.050Z,-0.60
2019-01-16T04:39:11.179Z,-0.60
2019-01-16T04:41:12.380Z,-0.70
2019-01-16T04:43:06.498Z,-0.70
2019-01-16T04:45:00.995Z,-0.70
2019-01-16T04:46:59.421Z,-0.70
2019-01-16T04:48:53.029Z,-0.70
2019-01-16T04:50:47.861Z,-0.70
2019-01-16T04:52:37.286Z,-0.70
2019-01-16T04:54:35.553Z,-0.70
2019-01-16T04:56:35.820Z,-0.70
2019-01-16T04:58:29.276Z,-0.70
2019-01-16T05:00:20.479Z,-0.70
2019-01-16T05:02:30.811Z,-0.70
2019-01-16T05:04:32.239Z,-0.60
2019-01-16T05:06:26.165Z,-0.60
2019-01-16T05:08:27.698Z,-0.60
2019-01-16T05:10:24.054Z,-0.60
2019-01-16T05:12:12.688Z,-0.70
2019-01-16T05:13:57.591Z,-0.70
2019-01-16T05:15:59.336Z,-0.70
2019-01-16T05:17:53.025Z,-0.70
2019-01-16T05:20:00.207Z,-0.70
2019-01-16T05:22:07.265Z,-0.80
2019-01-16T05:24:08.582Z,-0.80
2019-01-16T05:26:06.541Z,-0.80
2019-01-16T05:28:00.518Z,-0.80
2019-01-16T05:30:02.407Z,-0.80
2019-01-16T05:31:56.374Z,-0.80
2019-01-16T05:33:41.816Z,-0.80
2019-01-16T05:35:35.573Z,-0.90
2019-01-16T05:37:28.631Z,-0.90
2019-01-16T05:39:41.227Z,-0.90
2019-01-16T05:41:34.931Z,-0.90
2019-01-16T05:43:30.050Z,-0.90
2019-01-16T05:45:31.357Z,-0.90
2019-01-16T05:47:32.709Z,-0.90
2019-01-16T05:49:32.810Z,-0.90
2019-01-16T05:51:30.521Z,-0.90
2019-01-16T05:53:30.783Z,-0.90
2019-01-16T05:55:38.772Z,-0.90
2019-01-16T05:57:32.701Z,-0.90
2019-01-16T05:59:27.793Z,-0.90
2019-01-16T06:01:32.514Z,-0.90
2019-01-16T06:03:19.286Z,-0.90
2019-01-16T06:05:02.233Z,-1.00
2019-01-16T06:07:13.267Z,-1.00
2019-01-16T06:09:14.053Z,-1.00
2019-01-16T06:11:12.314Z,-1.00
2019-01-16T06:13:10.451Z,-1.00
2019-01-16T06:15:20.961Z,-1.00
2019-01-16T06:17:06.547Z,-1.00
2019-01-16T06:18:54.812Z,-1.00
2019-01-16T06:20:52.797Z,-1.00
2019-01-16T06:22:50.733Z,-1.00
2019-01-16T06:24:42.963Z,-1.00
2019-01-16T06:26:30.701Z,-1.00
2019-01-16T06:28:41.169Z,-1.00
2019-01-16T06:30:42.841Z,-0.90
2019-01-16T06:32:34.507Z,-1.00
2019-01-16T06:34:29.746Z,-1.00
2019-01-16T06:36:15.410Z,-1.00
2019-01-16T06:38:09.740Z,-1.00
2019-01-16T06:40:20.035Z,-1.00
2019-01-16T06:42:19.962Z,-1.00
2019-01-16T06:44:06.091Z,-1.00
2019-01-16T06:46:04.463Z,-1.00
2019-01-16T06:48:08.929Z,-1.00
2019-01-16T06:50:21.002Z,-0.90
2019-01-16T06:52:19.314Z,-0.90
2019-01-16T06:54:02.250Z,-0.90
2019-01-16T06:56:08.614Z,-0.80
2019-01-16T06:57:52.325Z,-0.80
2019-01-16T06:59:47.395Z,-0.80
2019-01-16T07:01:51.866Z,-0.70
2019-01-16T07:03:47.181Z,-0.70
2019-01-16T07:05:51.615Z,-0.70
2019-01-16T07:07:36.531Z,-0.70
2019-01-16T07:09:44.152Z,-0.70
2019-01-16T07:11:27.774Z,-0.70
2019-01-16T07:13:12.181Z,-0.70
2019-01-16T07:15:06.060Z,-0.70
2019-01-16T07:16:54.269Z,-0.70
2019-01-16T07:18:58.713Z,-0.70
2019-01-16T07:20:52.647Z,-0.70
2019-01-16T07:22:45.661Z,-0.70
2019-01-16T07:24:40.961Z,-0.60
2019-01-16T07:26:37.226Z,-0.60
2019-01-16T07:28:41.322Z,-0.50
2019-01-16T07:30:35.626Z,-0.50
2019-01-16T07:32:36.600Z,-0.50
2019-01-16T07:34:37.833Z,-0.40
2019-01-16T07:36:31.693Z,-0.40
2019-01-16T07:38:29.437Z,-0.40
2019-01-16T07:40:24.370Z,-0.40
2019-01-16T07:42:18.113Z,-0.30
2019-01-16T07:44:13.323Z,-0.30
2019-01-16T07:46:07.373Z,-0.20
2019-01-16T07:48:04.137Z,-0.20
2019-01-16T07:49:58.062Z,-0.20
2019-01-16T07:51:49.353Z,-0.10
2019-01-16T07:53:56.185Z,0.00
2019-01-16T07:55:48.805Z,0.00
2019-01-16T07:57:42.759Z,0.10
2019-01-16T07:59:43.996Z,0.20
2019-01-16T08:01:37.647Z,0.20
2019-01-16T08:03:31.789Z,0.20
2019-01-16T08:05:27.159Z,0.20
2019-01-16T08:07:21.226Z,0.20
2019-01-16T08:09:16.517Z,0.20
2019-01-16T08:11:10.629Z,0.30
2019-01-16T08:13:09.131Z,0.30
2019-01-16T08:15:10.378Z,0.30
2019-01-16T08:17:08.928Z,0.30
2019-01-16T08:18:54.291Z,0.40
2019-01-16T08:20:58.253Z,0.40
2019-01-16T08:23:00.523Z,0.40
2019-01-16T08:24:54.434Z,0.50
2019-01-16T08:26:49.645Z,0.50
2019-01-16T08:29:02.917Z,0.50
2019-01-16T08:30:58.430Z,0.50
2019-01-16T08:32:53.665Z,0.50
2019-01-16T08:34:47.639Z,0.50
2019-01-16T08:36:52.110Z,0.50
2019-01-16T08:39:02.692Z,0.60
2019-01-16T08:41:16.538Z,0.60
2019-01-16T08:43:00.837Z,0.70
2019-01-16T08:44:45.476Z,0.70
2019-01-16T08:46:40.618Z,0.80
2019-01-16T08:48:34.481Z,0.80
2019-01-16T08:50:22.902Z,0.90
2019-01-16T08:52:08.341Z,1.00
2019-01-16T08:54:10.709Z,1.00
2019-01-16T08:56:15.871Z,1.10
2019-01-16T08:58:09.694Z,1.10
2019-01-16T09:00:02.883Z,1.20
2019-01-16T09:02:14.486Z,1.20
2019-01-16T09:04:09.679Z,1.30
2019-01-16T09:06:10.964Z,1.30
2019-01-16T09:08:05.698Z,1.30
2019-01-16T09:09:56.781Z,1.40
2019-01-16T09:12:01.111Z,1.40
2019-01-16T09:13:55.997Z,1.50
2019-01-16T09:16:00.138Z,1.50
2019-01-16T09:18:03.502Z,1.60
2019-01-16T09:19:47.773Z,1.60
2019-01-16T09:21:40.506Z,1.60
2019-01-16T09:23:35.580Z,1.70
2019-01-16T09:25:29.205Z,1.80
2019-01-16T09:27:23.000Z,1.90
2019-01-16T09:29:27.520Z,1.90
2019-01-16T09:31:28.563Z,2.00
2019-01-16T09:33:27.598Z,2.10
2019-01-16T09:35:27.385Z,2.20
2019-01-16T09:37:28.459Z,2.10
2019-01-16T09:39:45.500Z,2.20
2019-01-16T09:41:39.206Z,2.30
2019-01-16T09:43:41.832Z,2.40
2019-01-16T09:45:45.397Z,2.40
2019-01-16T09:47:37.700Z,2.50
2019-01-16T09:49:32.665Z,2.60
2019-01-16T09:51:24.639Z,2.70
2019-01-16T09:53:23.573Z,2.70
2019-01-16T09:55:17.909Z,2.80
2019-01-16T09:57:25.078Z,2.90
2019-01-16T09:59:28.906Z,2.90
2019-01-16T10:01:25.562Z,3.00
2019-01-16T10:03:20.823Z,3.10
2019-01-16T10:05:25.008Z,3.20
2019-01-16T10:07:17.242Z,3.20
2019-01-16T10:09:11.087Z,3.30
2019-01-16T10:11:12.803Z,3.30
2019-01-16T10:13:08.053Z,3.40
2019-01-16T10:15:13.441Z,3.50
2019-01-16T10:17:07.429Z,3.50
2019-01-16T10:18:53.558Z,3.60
2019-01-16T10:20:55.558Z,3.60
2019-01-16T10:22:58.417Z,3.70
2019-01-16T10:24:56.548Z,3.70
2019-01-16T10:26:57.789Z,3.80
2019-01-16T10:28:58.981Z,3.80
2019-01-16T10:30:59.913Z,3.90
2019-01-16T10:33:03.957Z,4.00
2019-01-16T10:34:57.994Z,4.10
2019-01-16T10:37:01.901Z,4.20
2019-01-16T10:38:55.767Z,4.30
2019-01-16T10:40:58.042Z,4.20
2019-01-16T10:42:52.157Z,4.20
2019-01-16T10:44:38.442Z,4.30
2019-01-16T10:46:32.107Z,4.30
2019-01-16T10:48:25.934Z,4.40
2019-01-16T10:50:15.770Z,4.60
2019-01-16T10:52:09.747Z,5.40
2019-01-16T10:54:04.942Z,6.90
2019-01-16T10:55:58.814Z,8.80
2019-01-16T10:57:45.160Z,9.90
2019-01-16T10:59:40.437Z,10.60
2019-01-16T11:01:38.551Z,10.20
2019-01-16T11:03:39.793Z,9.60
2019-01-16T11:05:32.878Z,9.00
2019-01-16T11:07:28.250Z,8.40
2019-01-16T11:09:29.597Z,7.90
2019-01-16T11:11:36.498Z,7.50
2019-01-16T11:13:31.878Z,7.30
2019-01-16T11:15:40.205Z,6.90
2019-01-16T11:17:27.429Z,6.60
2019-01-16T11:19:28.789Z,6.40
2019-01-16T11:21:24.105Z,6.40
2019-01-16T11:23:34.270Z,6.20
2019-01-16T11:25:28.417Z,6.20
2019-01-16T11:27:23.810Z,6.20
2019-01-16T11:29:17.933Z,6.10
2019-01-16T11:31:21.730Z,6.20
2019-01-16T11:33:15.260Z,6.90
2019-01-16T11:35:08.892Z,8.30
2019-01-16T11:37:02.600Z,9.00
2019-01-16T11:38:56.654Z,9.40
2019-01-16T11:40:44.138Z,9.10
2019-01-16T11:42:38.985Z,8.70
2019-01-16T11:44:32.536Z,8.40
2019-01-16T11:46:33.917Z,8.00
2019-01-16T11:48:35.729Z,7.70
2019-01-16T11:50:31.558Z,7.40
2019-01-16T11:52:32.855Z,7.20
2019-01-16T11:54:33.596Z,7.10
2019-01-16T11:56:28.807Z,7.00
2019-01-16T11:58:26.717Z,6.80
2019-01-16T12:00:15.262Z,6.70
2019-01-16T12:02:05.290Z,6.60
2019-01-16T12:04:00.404Z,6.50
2019-01-16T12:05:48.991Z,6.50
2019-01-16T12:07:35.162Z,6.50
2019-01-16T12:09:40.104Z,6.50
2019-01-16T12:11:29.980Z,6.50
2019-01-16T12:13:28.013Z,6.50
2019-01-16T12:15:30.132Z,6.50
2019-01-16T12:17:40.136Z,6.50
2019-01-16T12:19:25.302Z,6.50
2019-01-16T12:21:26.762Z,6.40
2019-01-16T12:23:12.098Z,6.50
2019-01-16T12:25:07.261Z,6.50
2019-01-16T12:27:14.643Z,6.50
2019-01-16T12:29:12.036Z,6.50
2019-01-16T12:31:09.985Z,6.50
2019-01-16T12:33:20.331Z,6.50
2019-01-16T12:35:24.582Z,6.40
2019-01-16T12:37:12.036Z,6.40
2019-01-16T12:39:05.636Z,6.40
2019-01-16T12:41:01.292Z,6.40
2019-01-16T12:43:02.357Z,6.40
2019-01-16T12:45:03.330Z,6.40
2019-01-16T12:47:04.410Z,6.40
2019-01-16T12:49:11.406Z,6.40
2019-01-16T12:51:18.553Z,6.40
2019-01-16T12:53:01.082Z,6.40
2019-01-16T12:54:54.868Z,6.40
2019-01-16T12:56:44.793Z,6.40
2019-01-16T12:58:49.161Z,6.40
2019-01-16T13:00:59.318Z,6.40
2019-01-16T13:02:53.473Z,6.40
2019-01-16T13:05:06.992Z,6.40
2019-01-16T13:07:12.246Z,6.40
2019-01-16T13:09:01.240Z,6.50
2019-01-16T13:11:06.119Z,6.40
2019-01-16T13:13:00.234Z,6.40
2019-01-16T13:14:54.256Z,6.40
2019-01-16T13:16:48.106Z,6.40
2019-01-16T13:18:58.753Z,6.40
2019-01-16T13:20:58.857Z,6.40
2019-01-16T13:22:49.868Z,6.40
2019-01-16T13:24:43.586Z,6.30
2019-01-16T13:26:37.481Z,6.30
2019-01-16T13:28:31.420Z,6.40
2019-01-16T13:30:26.478Z,6.30
2019-01-16T13:32:21.708Z,6.40
2019-01-16T13:34:15.567Z,6.40
2019-01-16T13:36:10.555Z,6.30
2019-01-16T13:38:04.658Z,6.40
2019-01-16T13:40:06.009Z,6.30
2019-01-16T13:42:06.846Z,6.40
2019-01-16T13:43:53.237Z,6.40
2019-01-16T13:45:47.292Z,6.30
2019-01-16T13:47:50.798Z,6.40
2019-01-16T13:49:44.517Z,6.40
2019-01-16T13:51:32.598Z,6.40
2019-01-16T13:53:25.929Z,6.40
2019-01-16T13:55:16.542Z,6.50
2019-01-16T13:57:03.770Z,6.50
2019-01-16T13:59:05.261Z,6.50
2019-01-16T14:01:03.263Z,6.50
2019-01-16T14:03:01.608Z,6.60
2019-01-16T14:04:46.941Z,6.60
2019-01-16T14:06:54.326Z,6.60
2019-01-16T14:08:52.374Z,6.70
2019-01-16T14:11:05.750Z,6.70
2019-01-16T14:13:03.986Z,6.70
2019-01-16T14:14:59.229Z,6.70
2019-01-16T14:16:53.158Z,6.70
2019-01-16T14:18:47.400Z,6.70
2019-01-16T14:20:54.568Z,6.80
2019-01-16T14:22:47.161Z,6.80
2019-01-16T14:24:45.364Z,6.70
2019-01-16T14:26:39.395Z,6.80
2019-01-16T14:28:40.332Z,6.70
2019-01-16T14:30:35.166Z,6.70
2019-01-16T14:32:30.544Z,6.80
2019-01-16T14:34:28.474Z,6.80
2019-01-16T14:36:22.425Z,6.80
2019-01-16T14:38:32.996Z,6.80
2019-01-16T14:40:35.156Z,6.80
2019-01-16T14:42:33.561Z,6.80
2019-01-16T14:44:32.739Z,6.80
2019-01-16T14:46:30.850Z,6.70
2019-01-16T14:48:15.791Z,6.70
2019-01-16T14:50:16.894Z,6.70
2019-01-16T14:52:21.123Z,6.70
2019-01-16T14:54:19.375Z,6.60
2019-01-16T14:56:27.410Z,6.60
2019-01-16T14:58:11.769Z,6.50
2019-01-16T15:00:09.697Z,6.50
2019-01-16T15:01:57.409Z,6.50
2019-01-16T15:03:58.905Z,6.40
2019-01-16T15:05:58.365Z,6.40
2019-01-16T15:07:44.921Z,6.30
2019-01-16T15:09:39.122Z,6.20
2019-01-16T15:11:33.545Z,6.20
2019-01-16T15:13:19.919Z,6.10
2019-01-16T15:15:24.286Z,6.00
2019-01-16T15:17:21.853Z,6.00
2019-01-16T15:19:16.031Z,6.00
2019-01-16T15:21:11.222Z,5.90
2019-01-16T15:22:58.058Z,5.80
2019-01-16T15:24:46.106Z,5.80
2019-01-16T15:26:32.472Z,5.80
2019-01-16T15:28:36.694Z,5.70
2019-01-16T15:30:30.310Z,5.70
2019-01-16T15:32:26.493Z,5.70
2019-01-16T15:34:27.860Z,5.60
2019-01-16T15:36:22.420Z,5.60
2019-01-16T15:38:10.358Z,5.50
2019-01-16T15:40:07.210Z,5.50
2019-01-16T15:41:52.401Z,5.40
2019-01-16T15:43:49.587Z,5.30
2019-01-16T15:45:47.845Z,5.30
2019-01-16T15:47:41.786Z,5.30
2019-01-16T15:49:48.981Z,5.20
2019-01-16T15:51:42.478Z,5.10
2019-01-16T15:53:40.886Z,5.10
2019-01-16T15:55:45.317Z,5.00
2019-01-16T15:57:49.341Z,5.00
2019-01-16T15:59:43.590Z,5.00
2019-01-16T16:01:31.378Z,5.00
2019-01-16T16:03:26.674Z,5.00
2019-01-16T16:05:36.917Z,5.00
2019-01-16T16:07:30.685Z,5.00
2019-01-16T16:09:20.030Z,5.00
2019-01-16T16:11:30.224Z,4.90
2019-01-16T16:13:23.661Z,4.90
2019-01-16T16:15:30.965Z,4.80
2019-01-16T16:17:32.180Z,4.70
2019-01-16T16:19:36.321Z,4.70
2019-01-16T16:21:37.715Z,4.70
2019-01-16T16:23:30.466Z,4.60
2019-01-16T16:25:24.314Z,4.60
2019-01-16T16:27:22.445Z,4.60
2019-01-16T16:29:29.793Z,4.50
2019-01-16T16:31:23.537Z,4.50
2019-01-16T16:33:17.606Z,4.50
2019-01-16T16:35:22.158Z,4.40
2019-01-16T16:37:17.427Z,4.40
2019-01-16T16:39:12.299Z,4.30
2019-01-16T16:41:00.778Z,4.30
2019-01-16T16:42:56.049Z,4.20
2019-01-16T16:44:54.134Z,4.20
2019-01-16T16:46:47.793Z,4.20
2019-01-16T16:48:43.042Z,4.20
2019-01-16T16:50:43.757Z,4.20
2019-01-16T16:52:37.623Z,4.20
2019-01-16T16:54:31.372Z,4.20
2019-01-16T16:56:32.429Z,4.20
2019-01-16T16:58:30.881Z,4.20
2019-01-16T17:00:45.786Z,4.20
2019-01-16T17:02:45.409Z,4.20
2019-01-16T17:04:48.931Z,4.30
2019-01-16T17:06:43.156Z,4.40
2019-01-16T17:08:41.250Z,4.40
2019-01-16T17:10:39.086Z,4.40
2019-01-16T17:12:37.041Z,4.40
2019-01-16T17:14:35.287Z,4.40
2019-01-16T17:16:33.571Z,4.30
2019-01-16T17:18:19.078Z,4.30
2019-01-16T17:20:06.669Z,4.30
2019-01-16T17:22:04.584Z,4.20
2019-01-16T17:23:59.478Z,4.10
2019-01-16T17:25:54.633Z,4.00
2019-01-16T17:27:54.661Z,3.90
2019-01-16T17:30:02.925Z,3.80
2019-01-16T17:31:58.077Z,3.80
2019-01-16T17:33:53.920Z,3.70
2019-01-16T17:35:52.002Z,3.70
2019-01-16T17:37:50.236Z,3.70
2019-01-16T17:39:51.370Z,3.70
2019-01-16T17:41:48.458Z,3.60
2019-01-16T17:43:42.261Z,3.60
2019-01-16T17:45:36.694Z,3.60
2019-01-16T17:47:31.935Z,3.50
2019-01-16T17:49:18.953Z,3.50
2019-01-16T17:51:19.042Z,3.50
2019-01-16T17:53:23.428Z,3.40
2019-01-16T17:55:19.377Z,3.40
2019-01-16T17:57:03.665Z,3.40
2019-01-16T17:59:11.312Z,3.30
2019-01-16T18:01:03.372Z,3.30
2019-01-16T18:02:57.742Z,3.20
2019-01-16T18:04:47.610Z,3.10
2019-01-16T18:06:39.731Z,3.10
2019-01-16T18:08:24.883Z,3.10
2019-01-16T18:10:23.085Z,3.00
2019-01-16T18:12:16.970Z,3.00
2019-01-16T18:14:12.169Z,3.00
2019-01-16T18:16:05.966Z,3.00
2019-01-16T18:18:10.404Z,3.10
2019-01-16T18:20:14.301Z,3.10
2019-01-16T18:22:05.064Z,3.10
2019-01-16T18:23:59.242Z,3.10
2019-01-16T18:25:46.351Z,3.20
2019-01-16T18:27:40.302Z,3.20
2019-01-16T18:29:35.574Z,3.30
2019-01-16T18:31:29.012Z,3.30
2019-01-16T18:33:30.803Z,3.30
2019-01-16T18:35:19.538Z,3.30
2019-01-16T18:37:06.487Z,3.40
2019-01-16T18:39:00.482Z,3.40
2019-01-16T18:41:06.309Z,3.40
2019-01-16T18:43:10.812Z,3.40
2019-01-16T18:45:02.825Z,3.40
2019-01-16T18:47:01.801Z,3.40
2019-01-16T18:48:52.586Z,3.40
2019-01-16T18:50:39.703Z,3.40
2019-01-16T18:52:35.602Z,3.40
2019-01-16T18:54:29.839Z,3.40
2019-01-16T18:56:28.543Z,3.40
2019-01-16T18:58:15.888Z,3.40
2019-01-16T19:00:14.307Z,3.40
2019-01-16T19:02:12.207Z,3.40
2019-01-16T19:03:56.903Z,3.40
2019-01-16T19:05:53.898Z,3.40
2019-01-16T19:07:58.557Z,3.40
2019-01-16T19:09:56.615Z,3.30
2019-01-16T19:12:01.805Z,3.30
2019-01-16T19:13:58.196Z,3.20
2019-01-16T19:15:43.306Z,3.20
2019-01-16T19:17:35.705Z,3.10
2019-01-16T19:19:29.584Z,3.10
2019-01-16T19:21:24.957Z,3.00
2019-01-16T19:23:13.545Z,3.00
2019-01-16T19:25:07.605Z,2.90
2019-01-16T19:26:52.402Z,2.90
2019-01-16T19:28:46.897Z,2.90
2019-01-16T19:30:42.051Z,2.90
2019-01-16T19:32:46.441Z,2.80
2019-01-16T19:34:48.182Z,2.80
2019-01-16T19:36:43.459Z,2.80
2019-01-16T19:38:42.740Z,2.80
2019-01-16T19:40:41.036Z,2.80
2019-01-16T19:42:29.108Z,2.80
2019-01-16T19:44:24.327Z,2.80
2019-01-16T19:46:21.719Z,2.80
2019-01-16T19:48:15.685Z,2.80
2019-01-16T19:50:11.106Z,2.90
2019-01-16T19:52:12.870Z,2.90
2019-01-16T19:54:08.127Z,2.90
2019-01-16T19:56:12.491Z,2.90
2019-01-16T19:58:03.522Z,2.90
2019-01-16T20:00:04.823Z,2.80
2019-01-16T20:01:58.582Z,2.80
2019-01-16T20:03:52.589Z,2.80
2019-01-16T20:05:47.226Z,2.80
2019-01-16T20:07:41.081Z,2.80
2019-01-16T20:09:36.896Z,2.80
2019-01-16T20:11:37.868Z,2.80
2019-01-16T20:13:31.797Z,2.80
2019-01-16T20:15:15.873Z,2.80
2019-01-16T20:17:10.251Z,2.70
2019-01-16T20:19:14.271Z,2.70
2019-01-16T20:21:15.422Z,2.70
2019-01-16T20:23:16.629Z,2.60
2019-01-16T20:25:10.498Z,2.60
2019-01-16T20:27:14.685Z,2.50
2019-01-16T20:29:06.481Z,2.50
2019-01-16T20:31:08.025Z,2.50
2019-01-16T20:32:53.349Z,2.40
2019-01-16T20:34:54.523Z,2.40
2019-01-16T20:36:52.454Z,2.30
2019-01-16T20:38:44.071Z,2.30
2019-01-16T20:40:32.374Z,2.30
2019-01-16T20:42:30.698Z,2.20
2019-01-16T20:44:41.302Z,2.30
2019-01-16T20:46:34.909Z,2.20
2019-01-16T20:48:32.896Z,2.20
2019-01-16T20:50:37.862Z,2.20
2019-01-16T20:52:36.177Z,2.20
2019-01-16T20:54:40.069Z,2.20
2019-01-16T20:56:53.377Z,2.20
2019-01-16T20:59:06.857Z,2.10
2019-01-16T21:01:09.038Z,2.10
2019-01-16T21:03:03.017Z,2.10
2019-01-16T21:05:00.843Z,2.10
2019-01-16T21:06:56.054Z,2.10
2019-01-16T21:08:51.130Z,2.00
2019-01-16T21:10:46.452Z,2.00
2019-01-16T21:12:40.599Z,2.10
2019-01-16T21:14:41.650Z,2.00
2019-01-16T21:16:34.610Z,2.10
2019-01-16T21:18:22.079Z,2.10
2019-01-16T21:20:12.349Z,2.10
2019-01-16T21:22:07.540Z,2.10
2019-01-16T21:24:02.833Z,2.10
2019-01-16T21:26:01.029Z,2.10
2019-01-16T21:27:47.633Z,2.10
2019-01-16T21:29:51.752Z,2.10
2019-01-16T21:31:50.878Z,2.10
2019-01-16T21:33:54.680Z,2.00
2019-01-16T21:35:48.937Z,2.00
2019-01-16T21:37:43.076Z,2.00
2019-01-16T21:39:45.147Z,1.90
2019-01-16T21:41:46.293Z,1.90
2019-01-16T21:43:41.983Z,1.90
2019-01-16T21:45:31.915Z,1.90
2019-01-16T21:47:45.150Z,1.90
2019-01-16T21:49:40.445Z,1.90
2019-01-16T21:51:54.013Z,1.90
2019-01-16T21:53:52.019Z,2.00
2019-01-16T21:55:42.178Z,2.00
2019-01-16T21:57:31.442Z,2.00
2019-01-16T21:59:24.125Z,2.00
2019-01-16T22:01:17.798Z,2.10
2019-01-16T22:03:03.118Z,2.10
2019-01-16T22:04:55.354Z,2.20
2019-01-16T22:06:48.553Z,2.20
2019-01-16T22:08:44.080Z,2.20
2019-01-16T22:10:42.249Z,2.20
2019-01-16T22:12:43.083Z,2.10
2019-01-16T22:14:50.407Z,2.20
2019-01-16T22:16:55.901Z,2.20
2019-01-16T22:19:09.296Z,2.30
2019-01-16T22:21:10.162Z,2.30
2019-01-16T22:23:03.966Z,2.30
2019-01-16T22:24:53.254Z,2.30
2019-01-16T22:27:06.482Z,2.30
2019-01-16T22:28:56.955Z,2.30
2019-01-16T22:30:58.126Z,2.40
2019-01-16T22:33:01.915Z,2.40
2019-01-16T22:34:44.378Z,2.40
2019-01-16T22:36:26.702Z,2.40
2019-01-16T22:38:23.409Z,2.40
2019-01-16T22:40:24.618Z,2.40
2019-01-16T22:42:10.255Z,2.30
2019-01-16T22:44:11.007Z,2.30
2019-01-16T22:46:01.461Z,2.30
2019-01-16T22:47:46.118Z,2.30
2019-01-16T22:49:32.655Z,2.30
2019-01-16T22:51:39.853Z,2.20
2019-01-16T22:53:31.533Z,2.20
2019-01-16T22:55:19.583Z,2.20
2019-01-16T22:57:17.573Z,2.20
2019-01-16T22:59:12.798Z,2.20
2019-01-16T23:01:07.232Z,2.30
2019-01-16T23:03:12.865Z,2.30
2019-01-16T23:05:17.160Z,2.30
2019-01-16T23:07:03.962Z,2.30
2019-01-16T23:08:55.243Z,2.30
2019-01-16T23:10:50.458Z,2.30
2019-01-16T23:12:44.376Z,2.40
2019-01-16T23:14:39.658Z,2.40
2019-01-16T23:16:47.172Z,2.50
2019-01-16T23:18:42.580Z,2.50
2019-01-16T23:20:34.089Z,2.50
2019-01-16T23:22:27.547Z,2.50
2019-01-16T23:24:38.000Z,2.50
2019-01-16T23:26:21.975Z,2.50
2019-01-16T23:28:33.205Z,2.90
2019-01-16T23:30:36.929Z,2.50
2019-01-16T23:32:24.429Z,2.50
2019-01-16T23:34:22.304Z,2.50
2019-01-16T23:36:29.751Z,2.50
2019-01-16T23:38:20.675Z,2.50
2019-01-16T23:40:10.845Z,2.50
2019-01-16T23:42:04.724Z,2.40
2019-01-16T23:43:48.554Z,2.40
2019-01-16T23:45:41.020Z,2.40
2019-01-16T23:47:35.889Z,2.40
2019-01-16T23:49:20.237Z,2.30
2019-01-16T23:51:14.315Z,2.30
2019-01-16T23:53:08.465Z,2.30
2019-01-16T23:55:03.673Z,2.30
2019-01-16T23:56:59.017Z,2.30
2019-01-16T23:58:48.170Z,2.30
